sensor_id;sensor_type;location;lat;lon;timestamp;P1;durP1;ratioP1;P2;durP2;ratioP2
28625;SDS011;18905;42.668;23.364;2023-04-09T00:01:04;25.35;;;15.32;;
28625;SDS011;18905;42.668;23.364;2023-04-09T00:03:31;25.75;;;16.08;;
28625;SDS011;18905;42.668;23.364;2023-04-09T00:05:57;27.30;;;14.95;;
28625;SDS011;18905;42.668;23.364;2023-04-09T00:08:23;24.10;;;16.35;;
28625;SDS011;18905;42.668;23.364;2023-04-09T00:10:49;24.60;;;15.98;;
28625;SDS011;18905;42.668;23.364;2023-04-09T00:13:15;23.38;;;15.63;;
28625;SDS011;18905;42.668;23.364;2023-04-09T00:15:42;25.60;;;15.73;;
28625;SDS011;18905;42.668;23.364;2023-04-09T00:18:08;22.08;;;15.77;;
28625;SDS011;18905;42.668;23.364;2023-04-09T00:20:33;22.70;;;15.40;;
28625;SDS011;18905;42.668;23.364;2023-04-09T00:22:59;23.15;;;15.07;;
28625;SDS011;18905;42.668;23.364;2023-04-09T00:25:24;25.60;;;15.13;;
28625;SDS011;18905;42.668;23.364;2023-04-09T00:27:50;24.70;;;13.75;;
28625;SDS011;18905;42.668;23.364;2023-04-09T00:30:15;23.35;;;15.43;;
28625;SDS011;18905;42.668;23.364;2023-04-09T00:32:41;22.58;;;15.48;;
28625;SDS011;18905;42.668;23.364;2023-04-09T00:35:07;23.05;;;14.82;;
28625;SDS011;18905;42.668;23.364;2023-04-09T00:37:33;23.15;;;15.55;;
28625;SDS011;18905;42.668;23.364;2023-04-09T00:39:58;22.75;;;14.30;;
28625;SDS011;18905;42.668;23.364;2023-04-09T00:42:24;21.40;;;14.55;;
28625;SDS011;18905;42.668;23.364;2023-04-09T00:44:50;22.88;;;14.27;;
28625;SDS011;18905;42.668;23.364;2023-04-09T00:47:16;22.05;;;14.93;;
28625;SDS011;18905;42.668;23.364;2023-04-09T00:49:41;21.95;;;14.18;;
28625;SDS011;18905;42.668;23.364;2023-04-09T00:52:08;22.83;;;14.60;;
28625;SDS011;18905;42.668;23.364;2023-04-09T00:54:34;20.35;;;13.07;;
28625;SDS011;18905;42.668;23.364;2023-04-09T00:56:59;23.52;;;14.70;;
28625;SDS011;18905;42.668;23.364;2023-04-09T00:59:25;22.92;;;14.07;;
28625;SDS011;18905;42.668;23.364;2023-04-09T01:01:51;20.38;;;14.25;;
28625;SDS011;18905;42.668;23.364;2023-04-09T01:04:16;19.90;;;13.23;;
28625;SDS011;18905;42.668;23.364;2023-04-09T01:09:30;18.60;;;13.55;;
28625;SDS011;18905;42.668;23.364;2023-04-09T01:15:02;17.87;;;12.83;;
28625;SDS011;18905;42.668;23.364;2023-04-09T01:17:49;19.35;;;13.95;;
28625;SDS011;18905;42.668;23.364;2023-04-09T01:23:00;19.25;;;13.52;;
28625;SDS011;18905;42.668;23.364;2023-04-09T01:28:22;17.23;;;12.98;;
28625;SDS011;18905;42.668;23.364;2023-04-09T01:30:52;20.60;;;12.80;;
28625;SDS011;18905;42.668;23.364;2023-04-09T01:33:23;19.70;;;13.05;;
28625;SDS011;18905;42.668;23.364;2023-04-09T01:35:50;18.50;;;12.95;;
28625;SDS011;18905;42.668;23.364;2023-04-09T01:38:17;18.38;;;12.48;;
28625;SDS011;18905;42.668;23.364;2023-04-09T01:40:44;22.17;;;13.48;;
28625;SDS011;18905;42.668;23.364;2023-04-09T01:43:11;19.45;;;13.38;;
28625;SDS011;18905;42.668;23.364;2023-04-09T01:45:38;18.80;;;13.10;;
28625;SDS011;18905;42.668;23.364;2023-04-09T01:48:04;23.17;;;15.75;;
28625;SDS011;18905;42.668;23.364;2023-04-09T01:50:31;20.83;;;13.48;;
28625;SDS011;18905;42.668;23.364;2023-04-09T01:52:58;21.40;;;13.02;;
28625;SDS011;18905;42.668;23.364;2023-04-09T01:55:25;18.33;;;12.80;;
28625;SDS011;18905;42.668;23.364;2023-04-09T01:57:50;21.25;;;13.63;;
28625;SDS011;18905;42.668;23.364;2023-04-09T02:00:16;19.10;;;13.20;;
28625;SDS011;18905;42.668;23.364;2023-04-09T02:02:42;20.83;;;14.15;;
28625;SDS011;18905;42.668;23.364;2023-04-09T02:05:14;20.45;;;13.38;;
28625;SDS011;18905;42.668;23.364;2023-04-09T02:07:47;20.55;;;13.18;;
28625;SDS011;18905;42.668;23.364;2023-04-09T02:10:18;22.45;;;13.60;;
28625;SDS011;18905;42.668;23.364;2023-04-09T02:12:47;18.20;;;12.82;;
28625;SDS011;18905;42.668;23.364;2023-04-09T02:15:15;21.70;;;14.05;;
28625;SDS011;18905;42.668;23.364;2023-04-09T02:17:41;19.30;;;13.30;;
28625;SDS011;18905;42.668;23.364;2023-04-09T02:20:07;20.77;;;13.60;;
28625;SDS011;18905;42.668;23.364;2023-04-09T02:22:33;20.00;;;14.23;;
28625;SDS011;18905;42.668;23.364;2023-04-09T02:24:58;22.88;;;14.10;;
28625;SDS011;18905;42.668;23.364;2023-04-09T02:27:24;20.70;;;14.20;;
28625;SDS011;18905;42.668;23.364;2023-04-09T02:29:49;19.42;;;12.68;;
28625;SDS011;18905;42.668;23.364;2023-04-09T02:32:14;23.23;;;13.88;;
28625;SDS011;18905;42.668;23.364;2023-04-09T02:34:40;22.45;;;13.48;;
28625;SDS011;18905;42.668;23.364;2023-04-09T02:37:06;21.05;;;13.20;;
28625;SDS011;18905;42.668;23.364;2023-04-09T02:39:31;21.00;;;13.32;;
28625;SDS011;18905;42.668;23.364;2023-04-09T02:41:57;23.05;;;12.77;;
28625;SDS011;18905;42.668;23.364;2023-04-09T02:44:22;17.85;;;12.35;;
28625;SDS011;18905;42.668;23.364;2023-04-09T02:46:49;18.65;;;13.02;;
28625;SDS011;18905;42.668;23.364;2023-04-09T02:49:15;19.30;;;13.27;;
28625;SDS011;18905;42.668;23.364;2023-04-09T02:51:41;18.08;;;13.05;;
28625;SDS011;18905;42.668;23.364;2023-04-09T02:54:06;20.95;;;13.63;;
28625;SDS011;18905;42.668;23.364;2023-04-09T02:56:32;22.58;;;13.73;;
28625;SDS011;18905;42.668;23.364;2023-04-09T02:58:57;19.70;;;13.05;;
28625;SDS011;18905;42.668;23.364;2023-04-09T03:01:22;19.08;;;13.45;;
28625;SDS011;18905;42.668;23.364;2023-04-09T03:03:48;21.08;;;13.65;;
28625;SDS011;18905;42.668;23.364;2023-04-09T03:06:13;25.30;;;13.73;;
28625;SDS011;18905;42.668;23.364;2023-04-09T03:08:39;22.27;;;14.48;;
28625;SDS011;18905;42.668;23.364;2023-04-09T03:11:04;22.60;;;14.25;;
28625;SDS011;18905;42.668;23.364;2023-04-09T03:13:30;20.55;;;13.73;;
28625;SDS011;18905;42.668;23.364;2023-04-09T03:15:55;23.73;;;14.50;;
28625;SDS011;18905;42.668;23.364;2023-04-09T03:18:20;23.55;;;15.00;;
28625;SDS011;18905;42.668;23.364;2023-04-09T03:20:46;21.08;;;15.05;;
28625;SDS011;18905;42.668;23.364;2023-04-09T03:23:11;23.65;;;15.43;;
28625;SDS011;18905;42.668;23.364;2023-04-09T03:25:37;21.38;;;15.52;;
28625;SDS011;18905;42.668;23.364;2023-04-09T03:28:02;25.42;;;15.88;;
28625;SDS011;18905;42.668;23.364;2023-04-09T03:30:28;21.88;;;15.45;;
28625;SDS011;18905;42.668;23.364;2023-04-09T03:32:54;26.48;;;16.02;;
28625;SDS011;18905;42.668;23.364;2023-04-09T03:35:19;21.80;;;15.02;;
28625;SDS011;18905;42.668;23.364;2023-04-09T03:37:45;23.38;;;14.98;;
28625;SDS011;18905;42.668;23.364;2023-04-09T03:40:11;24.52;;;14.73;;
28625;SDS011;18905;42.668;23.364;2023-04-09T03:42:36;22.95;;;15.05;;
28625;SDS011;18905;42.668;23.364;2023-04-09T03:45:02;26.10;;;16.33;;
28625;SDS011;18905;42.668;23.364;2023-04-09T03:47:29;29.40;;;17.27;;
28625;SDS011;18905;42.668;23.364;2023-04-09T03:49:54;22.73;;;15.80;;
28625;SDS011;18905;42.668;23.364;2023-04-09T03:52:20;30.85;;;17.25;;
28625;SDS011;18905;42.668;23.364;2023-04-09T03:54:45;29.30;;;17.50;;
28625;SDS011;18905;42.668;23.364;2023-04-09T03:57:11;31.77;;;18.10;;
28625;SDS011;18905;42.668;23.364;2023-04-09T03:59:36;27.23;;;17.88;;
28625;SDS011;18905;42.668;23.364;2023-04-09T04:02:01;29.17;;;18.80;;
28625;SDS011;18905;42.668;23.364;2023-04-09T04:04:27;30.02;;;18.42;;
28625;SDS011;18905;42.668;23.364;2023-04-09T04:06:52;31.48;;;18.80;;
28625;SDS011;18905;42.668;23.364;2023-04-09T04:09:17;33.90;;;19.27;;
28625;SDS011;18905;42.668;23.364;2023-04-09T04:11:43;29.90;;;19.25;;
28625;SDS011;18905;42.668;23.364;2023-04-09T04:14:08;31.17;;;18.40;;
28625;SDS011;18905;42.668;23.364;2023-04-09T04:16:34;26.75;;;18.95;;
28625;SDS011;18905;42.668;23.364;2023-04-09T04:18:59;30.05;;;18.98;;
28625;SDS011;18905;42.668;23.364;2023-04-09T04:21:25;31.58;;;19.52;;
28625;SDS011;18905;42.668;23.364;2023-04-09T04:23:51;30.77;;;19.20;;
28625;SDS011;18905;42.668;23.364;2023-04-09T04:26:16;32.47;;;19.55;;
28625;SDS011;18905;42.668;23.364;2023-04-09T04:28:42;35.05;;;19.48;;
28625;SDS011;18905;42.668;23.364;2023-04-09T04:31:07;30.35;;;19.70;;
28625;SDS011;18905;42.668;23.364;2023-04-09T04:33:34;32.65;;;18.70;;
28625;SDS011;18905;42.668;23.364;2023-04-09T04:36:07;29.90;;;19.75;;
28625;SDS011;18905;42.668;23.364;2023-04-09T04:38:37;38.85;;;20.35;;
28625;SDS011;18905;42.668;23.364;2023-04-09T04:41:03;34.30;;;20.40;;
28625;SDS011;18905;42.668;23.364;2023-04-09T04:43:29;31.35;;;20.17;;
28625;SDS011;18905;42.668;23.364;2023-04-09T04:45:55;36.33;;;21.63;;
28625;SDS011;18905;42.668;23.364;2023-04-09T04:48:20;45.38;;;26.80;;
28625;SDS011;18905;42.668;23.364;2023-04-09T04:50:46;36.58;;;21.67;;
28625;SDS011;18905;42.668;23.364;2023-04-09T04:53:19;34.88;;;21.35;;
28625;SDS011;18905;42.668;23.364;2023-04-09T04:55:44;35.95;;;22.10;;
28625;SDS011;18905;42.668;23.364;2023-04-09T04:58:10;35.85;;;20.98;;
28625;SDS011;18905;42.668;23.364;2023-04-09T05:00:35;37.28;;;20.30;;
28625;SDS011;18905;42.668;23.364;2023-04-09T05:03:00;33.22;;;20.83;;
28625;SDS011;18905;42.668;23.364;2023-04-09T05:05:26;38.22;;;22.15;;
28625;SDS011;18905;42.668;23.364;2023-04-09T05:07:51;36.85;;;22.67;;
28625;SDS011;18905;42.668;23.364;2023-04-09T05:10:16;46.20;;;22.48;;
28625;SDS011;18905;42.668;23.364;2023-04-09T05:12:42;36.08;;;22.73;;
28625;SDS011;18905;42.668;23.364;2023-04-09T05:15:07;34.83;;;21.88;;
28625;SDS011;18905;42.668;23.364;2023-04-09T05:17:33;40.15;;;23.20;;
28625;SDS011;18905;42.668;23.364;2023-04-09T05:19:58;36.13;;;22.88;;
28625;SDS011;18905;42.668;23.364;2023-04-09T05:22:24;36.47;;;21.40;;
28625;SDS011;18905;42.668;23.364;2023-04-09T05:24:49;37.80;;;20.75;;
28625;SDS011;18905;42.668;23.364;2023-04-09T05:27:15;35.35;;;20.27;;
28625;SDS011;18905;42.668;23.364;2023-04-09T05:29:43;34.67;;;20.23;;
28625;SDS011;18905;42.668;23.364;2023-04-09T05:32:08;29.77;;;18.63;;
28625;SDS011;18905;42.668;23.364;2023-04-09T05:34:34;32.03;;;18.67;;
28625;SDS011;18905;42.668;23.364;2023-04-09T05:36:59;31.42;;;17.70;;
28625;SDS011;18905;42.668;23.364;2023-04-09T05:39:25;32.72;;;18.90;;
28625;SDS011;18905;42.668;23.364;2023-04-09T05:41:50;40.55;;;20.13;;
28625;SDS011;18905;42.668;23.364;2023-04-09T05:44:16;31.88;;;18.30;;
28625;SDS011;18905;42.668;23.364;2023-04-09T05:46:42;31.13;;;17.88;;
28625;SDS011;18905;42.668;23.364;2023-04-09T05:49:07;34.90;;;19.42;;
28625;SDS011;18905;42.668;23.364;2023-04-09T05:51:33;33.60;;;19.00;;
28625;SDS011;18905;42.668;23.364;2023-04-09T05:53:58;29.65;;;18.13;;
28625;SDS011;18905;42.668;23.364;2023-04-09T05:56:24;31.65;;;18.05;;
28625;SDS011;18905;42.668;23.364;2023-04-09T05:58:51;31.67;;;17.45;;
28625;SDS011;18905;42.668;23.364;2023-04-09T06:01:16;28.77;;;17.42;;
28625;SDS011;18905;42.668;23.364;2023-04-09T06:03:42;30.30;;;17.08;;
28625;SDS011;18905;42.668;23.364;2023-04-09T06:06:07;34.47;;;18.25;;
28625;SDS011;18905;42.668;23.364;2023-04-09T06:08:33;29.92;;;17.23;;
28625;SDS011;18905;42.668;23.364;2023-04-09T06:10:58;28.23;;;16.13;;
28625;SDS011;18905;42.668;23.364;2023-04-09T06:13:23;31.02;;;17.70;;
28625;SDS011;18905;42.668;23.364;2023-04-09T06:15:49;25.10;;;15.48;;
28625;SDS011;18905;42.668;23.364;2023-04-09T06:18:15;30.38;;;18.23;;
28625;SDS011;18905;42.668;23.364;2023-04-09T06:20:40;27.77;;;16.13;;
28625;SDS011;18905;42.668;23.364;2023-04-09T06:23:06;31.83;;;16.05;;
28625;SDS011;18905;42.668;23.364;2023-04-09T06:25:31;27.20;;;16.70;;
28625;SDS011;18905;42.668;23.364;2023-04-09T06:27:57;25.95;;;16.52;;
28625;SDS011;18905;42.668;23.364;2023-04-09T06:30:22;28.92;;;17.40;;
28625;SDS011;18905;42.668;23.364;2023-04-09T06:32:47;20.25;;;13.88;;
28625;SDS011;18905;42.668;23.364;2023-04-09T06:35:13;24.58;;;15.98;;
28625;SDS011;18905;42.668;23.364;2023-04-09T06:37:39;27.15;;;17.48;;
28625;SDS011;18905;42.668;23.364;2023-04-09T06:40:05;28.50;;;18.05;;
28625;SDS011;18905;42.668;23.364;2023-04-09T06:42:32;26.33;;;17.50;;
28625;SDS011;18905;42.668;23.364;2023-04-09T06:44:57;25.20;;;15.63;;
28625;SDS011;18905;42.668;23.364;2023-04-09T06:47:23;24.33;;;15.85;;
28625;SDS011;18905;42.668;23.364;2023-04-09T06:49:48;21.55;;;13.15;;
28625;SDS011;18905;42.668;23.364;2023-04-09T06:52:14;18.95;;;12.90;;
28625;SDS011;18905;42.668;23.364;2023-04-09T06:54:39;22.20;;;13.73;;
28625;SDS011;18905;42.668;23.364;2023-04-09T06:57:05;18.38;;;12.07;;
28625;SDS011;18905;42.668;23.364;2023-04-09T06:59:31;22.77;;;14.68;;
28625;SDS011;18905;42.668;23.364;2023-04-09T07:01:57;24.08;;;15.15;;
28625;SDS011;18905;42.668;23.364;2023-04-09T07:04:23;27.05;;;16.67;;
28625;SDS011;18905;42.668;23.364;2023-04-09T07:06:49;23.75;;;14.43;;
28625;SDS011;18905;42.668;23.364;2023-04-09T07:09:16;24.05;;;15.07;;
28625;SDS011;18905;42.668;23.364;2023-04-09T07:11:42;25.52;;;16.25;;
28625;SDS011;18905;42.668;23.364;2023-04-09T07:14:08;20.83;;;13.90;;
28625;SDS011;18905;42.668;23.364;2023-04-09T07:16:33;23.05;;;13.93;;
28625;SDS011;18905;42.668;23.364;2023-04-09T07:18:58;20.35;;;11.73;;
28625;SDS011;18905;42.668;23.364;2023-04-09T07:21:24;22.63;;;13.23;;
28625;SDS011;18905;42.668;23.364;2023-04-09T07:23:50;18.50;;;11.25;;
28625;SDS011;18905;42.668;23.364;2023-04-09T07:26:16;18.90;;;12.00;;
28625;SDS011;18905;42.668;23.364;2023-04-09T07:28:41;17.92;;;11.45;;
28625;SDS011;18905;42.668;23.364;2023-04-09T07:31:06;19.42;;;11.07;;
28625;SDS011;18905;42.668;23.364;2023-04-09T07:33:32;16.55;;;11.23;;
28625;SDS011;18905;42.668;23.364;2023-04-09T07:35:57;20.48;;;13.38;;
28625;SDS011;18905;42.668;23.364;2023-04-09T07:38:23;17.88;;;11.65;;
28625;SDS011;18905;42.668;23.364;2023-04-09T07:40:48;14.73;;;10.55;;
28625;SDS011;18905;42.668;23.364;2023-04-09T07:43:14;19.88;;;13.60;;
28625;SDS011;18905;42.668;23.364;2023-04-09T07:45:40;19.25;;;12.07;;
28625;SDS011;18905;42.668;23.364;2023-04-09T07:48:06;16.02;;;10.75;;
28625;SDS011;18905;42.668;23.364;2023-04-09T07:50:33;22.55;;;11.93;;
28625;SDS011;18905;42.668;23.364;2023-04-09T07:52:58;18.98;;;11.68;;
28625;SDS011;18905;42.668;23.364;2023-04-09T07:55:24;18.98;;;12.27;;
28625;SDS011;18905;42.668;23.364;2023-04-09T07:57:49;19.63;;;11.48;;
28625;SDS011;18905;42.668;23.364;2023-04-09T08:00:15;20.02;;;12.30;;
28625;SDS011;18905;42.668;23.364;2023-04-09T08:02:41;18.83;;;12.07;;
28625;SDS011;18905;42.668;23.364;2023-04-09T08:05:07;18.08;;;11.50;;
28625;SDS011;18905;42.668;23.364;2023-04-09T08:07:33;18.73;;;12.25;;
28625;SDS011;18905;42.668;23.364;2023-04-09T08:09:58;17.35;;;11.50;;
28625;SDS011;18905;42.668;23.364;2023-04-09T08:12:24;20.15;;;12.55;;
28625;SDS011;18905;42.668;23.364;2023-04-09T08:14:49;18.55;;;11.95;;
28625;SDS011;18905;42.668;23.364;2023-04-09T08:17:15;20.10;;;12.55;;
28625;SDS011;18905;42.668;23.364;2023-04-09T08:19:40;20.52;;;12.82;;
28625;SDS011;18905;42.668;23.364;2023-04-09T08:22:06;20.05;;;13.50;;
28625;SDS011;18905;42.668;23.364;2023-04-09T08:24:31;21.33;;;13.07;;
28625;SDS011;18905;42.668;23.364;2023-04-09T08:26:56;22.52;;;13.43;;
28625;SDS011;18905;42.668;23.364;2023-04-09T08:29:22;21.35;;;12.93;;
28625;SDS011;18905;42.668;23.364;2023-04-09T08:31:47;20.90;;;13.23;;
28625;SDS011;18905;42.668;23.364;2023-04-09T08:34:13;18.65;;;12.60;;
28625;SDS011;18905;42.668;23.364;2023-04-09T08:36:40;20.40;;;12.00;;
28625;SDS011;18905;42.668;23.364;2023-04-09T08:39:05;23.08;;;14.65;;
28625;SDS011;18905;42.668;23.364;2023-04-09T08:41:31;22.90;;;13.35;;
28625;SDS011;18905;42.668;23.364;2023-04-09T08:43:56;24.33;;;14.65;;
28625;SDS011;18905;42.668;23.364;2023-04-09T08:46:23;20.45;;;12.05;;
28625;SDS011;18905;42.668;23.364;2023-04-09T08:48:49;20.40;;;13.35;;
28625;SDS011;18905;42.668;23.364;2023-04-09T08:51:16;20.95;;;14.05;;
28625;SDS011;18905;42.668;23.364;2023-04-09T08:53:46;19.65;;;13.07;;
28625;SDS011;18905;42.668;23.364;2023-04-09T08:56:16;17.15;;;11.02;;
28625;SDS011;18905;42.668;23.364;2023-04-09T08:58:42;19.73;;;12.85;;
28625;SDS011;18905;42.668;23.364;2023-04-09T09:01:22;20.77;;;12.32;;
28625;SDS011;18905;42.668;23.364;2023-04-09T09:04:05;19.02;;;12.27;;
28625;SDS011;18905;42.668;23.364;2023-04-09T09:06:35;19.73;;;12.25;;
28625;SDS011;18905;42.668;23.364;2023-04-09T09:11:30;24.45;;;12.90;;
28625;SDS011;18905;42.668;23.364;2023-04-09T09:14:15;19.48;;;12.73;;
28625;SDS011;18905;42.668;23.364;2023-04-09T09:16:43;21.38;;;13.70;;
28625;SDS011;18905;42.668;23.364;2023-04-09T09:19:28;25.30;;;14.00;;
28625;SDS011;18905;42.668;23.364;2023-04-09T09:21:55;20.23;;;13.27;;
28625;SDS011;18905;42.668;23.364;2023-04-09T09:24:21;19.95;;;12.13;;
28625;SDS011;18905;42.668;23.364;2023-04-09T09:26:47;19.75;;;13.00;;
28625;SDS011;18905;42.668;23.364;2023-04-09T09:29:12;22.92;;;12.80;;
28625;SDS011;18905;42.668;23.364;2023-04-09T09:31:47;20.05;;;13.00;;
28625;SDS011;18905;42.668;23.364;2023-04-09T09:34:14;18.05;;;11.95;;
28625;SDS011;18905;42.668;23.364;2023-04-09T09:36:43;21.70;;;11.77;;
28625;SDS011;18905;42.668;23.364;2023-04-09T09:39:10;21.15;;;12.80;;
28625;SDS011;18905;42.668;23.364;2023-04-09T09:41:39;17.05;;;11.82;;
28625;SDS011;18905;42.668;23.364;2023-04-09T09:44:06;15.10;;;11.25;;
28625;SDS011;18905;42.668;23.364;2023-04-09T09:46:33;15.60;;;10.60;;
28625;SDS011;18905;42.668;23.364;2023-04-09T09:49:02;17.75;;;11.68;;
28625;SDS011;18905;42.668;23.364;2023-04-09T09:51:27;15.48;;;10.60;;
28625;SDS011;18905;42.668;23.364;2023-04-09T09:53:56;17.75;;;10.90;;
28625;SDS011;18905;42.668;23.364;2023-04-09T09:56:40;13.68;;;9.88;;
28625;SDS011;18905;42.668;23.364;2023-04-09T09:59:20;14.80;;;10.13;;
28625;SDS011;18905;42.668;23.364;2023-04-09T10:01:58;11.93;;;8.75;;
28625;SDS011;18905;42.668;23.364;2023-04-09T10:04:28;13.73;;;9.57;;
28625;SDS011;18905;42.668;23.364;2023-04-09T10:06:57;13.30;;;9.40;;
28625;SDS011;18905;42.668;23.364;2023-04-09T10:09:25;13.43;;;9.48;;
28625;SDS011;18905;42.668;23.364;2023-04-09T10:11:52;13.68;;;9.90;;
28625;SDS011;18905;42.668;23.364;2023-04-09T10:14:19;13.23;;;9.75;;
28625;SDS011;18905;42.668;23.364;2023-04-09T10:16:46;11.60;;;8.23;;
28625;SDS011;18905;42.668;23.364;2023-04-09T10:19:11;12.15;;;9.00;;
28625;SDS011;18905;42.668;23.364;2023-04-09T10:21:41;11.60;;;8.98;;
28625;SDS011;18905;42.668;23.364;2023-04-09T10:24:23;10.70;;;8.50;;
28625;SDS011;18905;42.668;23.364;2023-04-09T10:26:49;12.73;;;8.80;;
28625;SDS011;18905;42.668;23.364;2023-04-09T10:29:24;12.70;;;8.63;;
28625;SDS011;18905;42.668;23.364;2023-04-09T10:34:17;13.25;;;9.43;;
28625;SDS011;18905;42.668;23.364;2023-04-09T10:36:48;11.02;;;8.73;;
28625;SDS011;18905;42.668;23.364;2023-04-09T10:39:16;13.23;;;9.70;;
28625;SDS011;18905;42.668;23.364;2023-04-09T10:41:42;13.80;;;10.05;;
28625;SDS011;18905;42.668;23.364;2023-04-09T10:44:22;12.75;;;8.60;;
28625;SDS011;18905;42.668;23.364;2023-04-09T10:46:53;10.88;;;8.10;;
28625;SDS011;18905;42.668;23.364;2023-04-09T10:49:20;10.48;;;8.30;;
28625;SDS011;18905;42.668;23.364;2023-04-09T10:51:47;12.43;;;8.57;;
28625;SDS011;18905;42.668;23.364;2023-04-09T10:59:47;12.27;;;8.90;;
28625;SDS011;18905;42.668;23.364;2023-04-09T11:07:45;15.77;;;8.73;;
28625;SDS011;18905;42.668;23.364;2023-04-09T11:10:18;12.15;;;8.32;;
28625;SDS011;18905;42.668;23.364;2023-04-09T11:12:45;11.57;;;8.82;;
28625;SDS011;18905;42.668;23.364;2023-04-09T11:15:15;11.38;;;8.77;;
28625;SDS011;18905;42.668;23.364;2023-04-09T11:17:42;12.15;;;8.07;;
28625;SDS011;18905;42.668;23.364;2023-04-09T11:20:08;13.57;;;8.13;;
28625;SDS011;18905;42.668;23.364;2023-04-09T11:22:34;10.60;;;8.05;;
28625;SDS011;18905;42.668;23.364;2023-04-09T11:25:00;11.95;;;9.38;;
28625;SDS011;18905;42.668;23.364;2023-04-09T11:27:25;10.57;;;8.35;;
28625;SDS011;18905;42.668;23.364;2023-04-09T11:29:54;13.07;;;9.02;;
28625;SDS011;18905;42.668;23.364;2023-04-09T11:32:20;11.77;;;7.95;;
28625;SDS011;18905;42.668;23.364;2023-04-09T11:34:45;12.93;;;8.77;;
28625;SDS011;18905;42.668;23.364;2023-04-09T11:37:17;14.05;;;9.27;;
28625;SDS011;18905;42.668;23.364;2023-04-09T11:39:43;11.18;;;8.13;;
28625;SDS011;18905;42.668;23.364;2023-04-09T11:42:15;10.20;;;7.93;;
28625;SDS011;18905;42.668;23.364;2023-04-09T11:44:40;11.02;;;8.23;;
28625;SDS011;18905;42.668;23.364;2023-04-09T11:47:07;11.18;;;8.13;;
28625;SDS011;18905;42.668;23.364;2023-04-09T11:49:33;12.07;;;8.00;;
28625;SDS011;18905;42.668;23.364;2023-04-09T11:51:59;12.50;;;8.23;;
28625;SDS011;18905;42.668;23.364;2023-04-09T11:54:30;12.20;;;8.38;;
28625;SDS011;18905;42.668;23.364;2023-04-09T11:56:57;7.72;;;6.25;;
28625;SDS011;18905;42.668;23.364;2023-04-09T11:59:23;8.23;;;6.15;;
28625;SDS011;18905;42.668;23.364;2023-04-09T12:01:49;6.88;;;5.40;;
28625;SDS011;18905;42.668;23.364;2023-04-09T12:04:19;6.53;;;5.55;;
28625;SDS011;18905;42.668;23.364;2023-04-09T12:06:45;7.00;;;5.45;;
28625;SDS011;18905;42.668;23.364;2023-04-09T12:09:11;5.70;;;4.88;;
28625;SDS011;18905;42.668;23.364;2023-04-09T12:11:38;6.57;;;4.75;;
28625;SDS011;18905;42.668;23.364;2023-04-09T12:14:10;5.95;;;5.15;;
28625;SDS011;18905;42.668;23.364;2023-04-09T12:16:40;7.05;;;5.47;;
28625;SDS011;18905;42.668;23.364;2023-04-09T12:19:08;7.32;;;5.47;;
28625;SDS011;18905;42.668;23.364;2023-04-09T12:21:52;8.65;;;5.82;;
28625;SDS011;18905;42.668;23.364;2023-04-09T12:24:21;10.88;;;7.05;;
28625;SDS011;18905;42.668;23.364;2023-04-09T12:26:48;7.85;;;6.30;;
28625;SDS011;18905;42.668;23.364;2023-04-09T12:29:15;8.07;;;6.03;;
28625;SDS011;18905;42.668;23.364;2023-04-09T12:31:42;7.05;;;5.78;;
28625;SDS011;18905;42.668;23.364;2023-04-09T12:34:08;7.82;;;5.63;;
28625;SDS011;18905;42.668;23.364;2023-04-09T12:36:34;11.13;;;5.47;;
28625;SDS011;18905;42.668;23.364;2023-04-09T12:39:00;8.65;;;5.90;;
28625;SDS011;18905;42.668;23.364;2023-04-09T12:41:25;8.07;;;5.95;;
28625;SDS011;18905;42.668;23.364;2023-04-09T12:43:51;9.50;;;5.85;;
28625;SDS011;18905;42.668;23.364;2023-04-09T12:46:17;8.52;;;5.70;;
28625;SDS011;18905;42.668;23.364;2023-04-09T12:48:43;9.18;;;6.47;;
28625;SDS011;18905;42.668;23.364;2023-04-09T12:51:09;7.70;;;5.75;;
28625;SDS011;18905;42.668;23.364;2023-04-09T12:53:35;8.15;;;5.97;;
28625;SDS011;18905;42.668;23.364;2023-04-09T12:56:01;7.93;;;5.47;;
28625;SDS011;18905;42.668;23.364;2023-04-09T12:58:26;7.57;;;5.57;;
28625;SDS011;18905;42.668;23.364;2023-04-09T13:00:52;7.85;;;5.90;;
28625;SDS011;18905;42.668;23.364;2023-04-09T13:03:18;8.13;;;5.65;;
28625;SDS011;18905;42.668;23.364;2023-04-09T13:05:45;7.88;;;5.78;;
28625;SDS011;18905;42.668;23.364;2023-04-09T13:08:11;14.40;;;8.70;;
28625;SDS011;18905;42.668;23.364;2023-04-09T13:10:36;10.13;;;6.68;;
28625;SDS011;18905;42.668;23.364;2023-04-09T13:13:02;9.48;;;6.20;;
28625;SDS011;18905;42.668;23.364;2023-04-09T13:15:27;7.05;;;5.60;;
28625;SDS011;18905;42.668;23.364;2023-04-09T13:17:52;8.00;;;5.65;;
28625;SDS011;18905;42.668;23.364;2023-04-09T13:20:18;8.88;;;6.07;;
28625;SDS011;18905;42.668;23.364;2023-04-09T13:22:43;9.10;;;5.95;;
28625;SDS011;18905;42.668;23.364;2023-04-09T13:25:15;9.85;;;6.32;;
28625;SDS011;18905;42.668;23.364;2023-04-09T13:27:41;10.50;;;6.75;;
28625;SDS011;18905;42.668;23.364;2023-04-09T13:30:07;9.48;;;6.97;;
28625;SDS011;18905;42.668;23.364;2023-04-09T13:32:33;11.27;;;6.43;;
28625;SDS011;18905;42.668;23.364;2023-04-09T13:34:58;7.40;;;5.80;;
28625;SDS011;18905;42.668;23.364;2023-04-09T13:37:23;7.70;;;5.35;;
28625;SDS011;18905;42.668;23.364;2023-04-09T13:39:50;7.65;;;5.55;;
28625;SDS011;18905;42.668;23.364;2023-04-09T13:42:15;10.40;;;5.75;;
28625;SDS011;18905;42.668;23.364;2023-04-09T13:44:41;9.20;;;5.80;;
28625;SDS011;18905;42.668;23.364;2023-04-09T13:47:12;7.78;;;5.00;;
28625;SDS011;18905;42.668;23.364;2023-04-09T13:49:39;8.07;;;5.95;;
28625;SDS011;18905;42.668;23.364;2023-04-09T13:52:05;8.52;;;5.47;;
28625;SDS011;18905;42.668;23.364;2023-04-09T13:54:31;9.13;;;6.47;;
28625;SDS011;18905;42.668;23.364;2023-04-09T13:56:57;6.63;;;5.18;;
28625;SDS011;18905;42.668;23.364;2023-04-09T13:59:22;8.52;;;5.95;;
28625;SDS011;18905;42.668;23.364;2023-04-09T14:01:48;8.55;;;6.38;;
28625;SDS011;18905;42.668;23.364;2023-04-09T14:04:13;10.93;;;6.30;;
28625;SDS011;18905;42.668;23.364;2023-04-09T14:06:39;11.75;;;6.65;;
28625;SDS011;18905;42.668;23.364;2023-04-09T14:09:06;10.05;;;7.10;;
28625;SDS011;18905;42.668;23.364;2023-04-09T14:11:31;10.43;;;7.28;;
28625;SDS011;18905;42.668;23.364;2023-04-09T14:13:57;13.05;;;7.15;;
28625;SDS011;18905;42.668;23.364;2023-04-09T14:16:22;8.57;;;6.63;;
28625;SDS011;18905;42.668;23.364;2023-04-09T14:18:52;10.05;;;6.70;;
28625;SDS011;18905;42.668;23.364;2023-04-09T14:21:17;12.38;;;7.20;;
28625;SDS011;18905;42.668;23.364;2023-04-09T14:23:43;9.80;;;6.88;;
28625;SDS011;18905;42.668;23.364;2023-04-09T14:26:08;11.82;;;6.78;;
28625;SDS011;18905;42.668;23.364;2023-04-09T14:28:34;10.27;;;7.03;;
28625;SDS011;18905;42.668;23.364;2023-04-09T14:31:00;14.38;;;7.20;;
28625;SDS011;18905;42.668;23.364;2023-04-09T14:33:26;8.77;;;6.47;;
28625;SDS011;18905;42.668;23.364;2023-04-09T14:35:51;10.65;;;7.35;;
28625;SDS011;18905;42.668;23.364;2023-04-09T14:38:17;10.60;;;7.05;;